sensor_id;sensor_type;location;lat;lon;timestamp;P1;durP1;ratioP1;P2;durP2;ratioP2
41253;SDS011;26987;59.928;30.306;2023-03-14T00:01:14;9.88;;;2.80;;
41253;SDS011;26987;59.928;30.306;2023-03-14T00:03:44;4.68;;;1.45;;
41253;SDS011;26987;59.928;30.306;2023-03-14T00:06:12;6.60;;;2.25;;
41253;SDS011;26987;59.928;30.306;2023-03-14T00:08:41;5.90;;;2.80;;
41253;SDS011;26987;59.928;30.306;2023-03-14T00:11:10;5.03;;;2.28;;
41253;SDS011;26987;59.928;30.306;2023-03-14T00:13:43;8.02;;;2.33;;
41253;SDS011;26987;59.928;30.306;2023-03-14T00:16:14;2.95;;;1.63;;
41253;SDS011;26987;59.928;30.306;2023-03-14T00:18:43;5.38;;;2.78;;
41253;SDS011;26987;59.928;30.306;2023-03-14T00:21:11;6.60;;;1.55;;
41253;SDS011;26987;59.928;30.306;2023-03-14T00:23:40;6.00;;;2.15;;
41253;SDS011;26987;59.928;30.306;2023-03-14T00:26:09;3.78;;;1.55;;
41253;SDS011;26987;59.928;30.306;2023-03-14T00:28:39;5.45;;;2.03;;
41253;SDS011;26987;59.928;30.306;2023-03-14T00:31:09;3.72;;;1.60;;
41253;SDS011;26987;59.928;30.306;2023-03-14T00:33:42;2.75;;;1.73;;
41253;SDS011;26987;59.928;30.306;2023-03-14T00:36:12;3.90;;;1.40;;
41253;SDS011;26987;59.928;30.306;2023-03-14T00:38:42;5.55;;;1.77;;
41253;SDS011;26987;59.928;30.306;2023-03-14T00:41:12;7.30;;;1.98;;
41253;SDS011;26987;59.928;30.306;2023-03-14T00:43:41;7.78;;;1.83;;
41253;SDS011;26987;59.928;30.306;2023-03-14T00:46:10;5.57;;;1.50;;
41253;SDS011;26987;59.928;30.306;2023-03-14T00:48:38;2.95;;;1.33;;
41253;SDS011;26987;59.928;30.306;2023-03-14T00:51:07;5.25;;;1.55;;
41253;SDS011;26987;59.928;30.306;2023-03-14T00:53:38;6.07;;;1.70;;
41253;SDS011;26987;59.928;30.306;2023-03-14T00:56:07;3.15;;;1.48;;
41253;SDS011;26987;59.928;30.306;2023-03-14T00:58:37;2.53;;;1.25;;
41253;SDS011;26987;59.928;30.306;2023-03-14T01:01:05;6.10;;;1.45;;
41253;SDS011;26987;59.928;30.306;2023-03-14T01:03:34;2.63;;;1.52;;
41253;SDS011;26987;59.928;30.306;2023-03-14T01:06:08;2.75;;;1.67;;
41253;SDS011;26987;59.928;30.306;2023-03-14T01:08:37;4.43;;;1.58;;
41253;SDS011;26987;59.928;30.306;2023-03-14T01:11:06;2.40;;;1.45;;
41253;SDS011;26987;59.928;30.306;2023-03-14T01:13:35;3.33;;;1.50;;
41253;SDS011;26987;59.928;30.306;2023-03-14T01:16:03;4.80;;;1.98;;
41253;SDS011;26987;59.928;30.306;2023-03-14T01:18:36;3.22;;;1.40;;
41253;SDS011;26987;59.928;30.306;2023-03-14T01:21:10;4.10;;;1.75;;
41253;SDS011;26987;59.928;30.306;2023-03-14T01:23:40;4.55;;;1.30;;
41253;SDS011;26987;59.928;30.306;2023-03-14T01:26:09;1.67;;;0.95;;
41253;SDS011;26987;59.928;30.306;2023-03-14T01:28:38;4.18;;;1.40;;
41253;SDS011;26987;59.928;30.306;2023-03-14T01:31:07;3.60;;;1.50;;
41253;SDS011;26987;59.928;30.306;2023-03-14T01:33:37;2.15;;;1.15;;
41253;SDS011;26987;59.928;30.306;2023-03-14T01:36:07;4.30;;;1.65;;
41253;SDS011;26987;59.928;30.306;2023-03-14T01:38:38;2.38;;;1.30;;
41253;SDS011;26987;59.928;30.306;2023-03-14T01:41:12;2.13;;;1.23;;
41253;SDS011;26987;59.928;30.306;2023-03-14T01:43:43;2.75;;;1.20;;
41253;SDS011;26987;59.928;30.306;2023-03-14T01:49:01;2.85;;;1.45;;
41253;SDS011;26987;59.928;30.306;2023-03-14T01:51:37;2.85;;;1.33;;
41253;SDS011;26987;59.928;30.306;2023-03-14T01:54:12;2.08;;;0.90;;
41253;SDS011;26987;59.928;30.306;2023-03-14T01:56:44;3.55;;;1.23;;
41253;SDS011;26987;59.928;30.306;2023-03-14T01:59:15;2.90;;;1.40;;
41253;SDS011;26987;59.928;30.306;2023-03-14T02:01:43;3.40;;;0.98;;
41253;SDS011;26987;59.928;30.306;2023-03-14T02:04:14;2.58;;;1.15;;
41253;SDS011;26987;59.928;30.306;2023-03-14T02:06:51;1.83;;;1.10;;
41253;SDS011;26987;59.928;30.306;2023-03-14T02:09:28;1.70;;;1.02;;
41253;SDS011;26987;59.928;30.306;2023-03-14T02:11:57;2.97;;;1.20;;
41253;SDS011;26987;59.928;30.306;2023-03-14T02:14:41;2.58;;;1.10;;
41253;SDS011;26987;59.928;30.306;2023-03-14T02:17:32;2.58;;;1.20;;
41253;SDS011;26987;59.928;30.306;2023-03-14T02:20:26;2.00;;;0.98;;
41253;SDS011;26987;59.928;30.306;2023-03-14T02:23:02;4.68;;;1.40;;
41253;SDS011;26987;59.928;30.306;2023-03-14T02:25:33;2.15;;;1.00;;
41253;SDS011;26987;59.928;30.306;2023-03-14T02:28:11;6.13;;;1.10;;
41253;SDS011;26987;59.928;30.306;2023-03-14T02:30:40;2.60;;;1.08;;
41253;SDS011;26987;59.928;30.306;2023-03-14T02:33:09;3.22;;;1.15;;
41253;SDS011;26987;59.928;30.306;2023-03-14T02:35:44;1.63;;;1.20;;
41253;SDS011;26987;59.928;30.306;2023-03-14T02:38:17;4.43;;;1.10;;
41253;SDS011;26987;59.928;30.306;2023-03-14T02:40:51;1.77;;;1.00;;
41253;SDS011;26987;59.928;30.306;2023-03-14T02:43:20;1.88;;;1.27;;
41253;SDS011;26987;59.928;30.306;2023-03-14T02:45:54;2.47;;;0.90;;
41253;SDS011;26987;59.928;30.306;2023-03-14T02:48:25;2.05;;;1.10;;
41253;SDS011;26987;59.928;30.306;2023-03-14T02:50:55;4.47;;;1.30;;
41253;SDS011;26987;59.928;30.306;2023-03-14T02:53:26;2.15;;;1.02;;
41253;SDS011;26987;59.928;30.306;2023-03-14T02:55:58;2.38;;;1.13;;
41253;SDS011;26987;59.928;30.306;2023-03-14T02:58:30;3.72;;;1.10;;
41253;SDS011;26987;59.928;30.306;2023-03-14T03:01:06;3.70;;;1.50;;
41253;SDS011;26987;59.928;30.306;2023-03-14T03:03:34;4.63;;;1.20;;
41253;SDS011;26987;59.928;30.306;2023-03-14T03:06:02;3.85;;;1.50;;
41253;SDS011;26987;59.928;30.306;2023-03-14T03:08:30;3.78;;;1.92;;
41253;SDS011;26987;59.928;30.306;2023-03-14T03:10:59;2.75;;;1.50;;
41253;SDS011;26987;59.928;30.306;2023-03-14T03:13:31;4.05;;;1.35;;
41253;SDS011;26987;59.928;30.306;2023-03-14T03:16:01;6.05;;;3.03;;
41253;SDS011;26987;59.928;30.306;2023-03-14T03:18:29;3.30;;;1.90;;
41253;SDS011;26987;59.928;30.306;2023-03-14T03:20:59;5.00;;;1.70;;
41253;SDS011;26987;59.928;30.306;2023-03-14T03:23:27;4.95;;;1.65;;
41253;SDS011;26987;59.928;30.306;2023-03-14T03:25:55;4.70;;;2.47;;
41253;SDS011;26987;59.928;30.306;2023-03-14T03:28:23;3.15;;;1.30;;
41253;SDS011;26987;59.928;30.306;2023-03-14T03:30:53;4.05;;;1.38;;
41253;SDS011;26987;59.928;30.306;2023-03-14T03:33:21;4.88;;;1.30;;
41253;SDS011;26987;59.928;30.306;2023-03-14T03:35:50;2.85;;;1.40;;
41253;SDS011;26987;59.928;30.306;2023-03-14T03:38:25;6.05;;;1.60;;
41253;SDS011;26987;59.928;30.306;2023-03-14T03:40:54;2.67;;;1.20;;
41253;SDS011;26987;59.928;30.306;2023-03-14T03:43:25;6.57;;;1.52;;
41253;SDS011;26987;59.928;30.306;2023-03-14T03:45:54;11.35;;;2.25;;
41253;SDS011;26987;59.928;30.306;2023-03-14T03:48:23;6.07;;;1.63;;
41253;SDS011;26987;59.928;30.306;2023-03-14T03:50:51;3.88;;;1.63;;
41253;SDS011;26987;59.928;30.306;2023-03-14T03:53:21;2.90;;;1.42;;
41253;SDS011;26987;59.928;30.306;2023-03-14T03:55:50;3.65;;;1.60;;
41253;SDS011;26987;59.928;30.306;2023-03-14T03:58:17;2.60;;;1.15;;
41253;SDS011;26987;59.928;30.306;2023-03-14T04:00:45;3.15;;;1.38;;
41253;SDS011;26987;59.928;30.306;2023-03-14T04:03:15;3.58;;;2.03;;
41253;SDS011;26987;59.928;30.306;2023-03-14T04:05:43;3.92;;;1.83;;
41253;SDS011;26987;59.928;30.306;2023-03-14T04:08:11;3.75;;;1.50;;
41253;SDS011;26987;59.928;30.306;2023-03-14T04:10:38;9.10;;;2.05;;
41253;SDS011;26987;59.928;30.306;2023-03-14T04:13:09;9.00;;;2.00;;
41253;SDS011;26987;59.928;30.306;2023-03-14T04:15:39;11.73;;;3.30;;
41253;SDS011;26987;59.928;30.306;2023-03-14T04:18:13;3.40;;;1.95;;
41253;SDS011;26987;59.928;30.306;2023-03-14T04:20:43;7.35;;;1.85;;
41253;SDS011;26987;59.928;30.306;2023-03-14T04:23:12;7.95;;;2.78;;
41253;SDS011;26987;59.928;30.306;2023-03-14T04:25:40;9.68;;;3.17;;
41253;SDS011;26987;59.928;30.306;2023-03-14T04:28:08;6.97;;;2.92;;
41253;SDS011;26987;59.928;30.306;2023-03-14T04:30:36;7.50;;;2.20;;
41253;SDS011;26987;59.928;30.306;2023-03-14T04:33:15;8.32;;;1.90;;
41253;SDS011;26987;59.928;30.306;2023-03-14T04:35:52;9.32;;;1.50;;
41253;SDS011;26987;59.928;30.306;2023-03-14T04:38:21;4.07;;;1.60;;
41253;SDS011;26987;59.928;30.306;2023-03-14T04:40:50;3.13;;;1.50;;
41253;SDS011;26987;59.928;30.306;2023-03-14T04:43:19;4.72;;;1.30;;
41253;SDS011;26987;59.928;30.306;2023-03-14T04:45:53;8.40;;;1.50;;
41253;SDS011;26987;59.928;30.306;2023-03-14T04:48:22;3.25;;;1.58;;
41253;SDS011;26987;59.928;30.306;2023-03-14T04:50:51;5.78;;;1.92;;
41253;SDS011;26987;59.928;30.306;2023-03-14T04:53:19;6.15;;;1.88;;
41253;SDS011;26987;59.928;30.306;2023-03-14T04:55:48;6.78;;;1.83;;
41253;SDS011;26987;59.928;30.306;2023-03-14T04:58:17;6.57;;;1.50;;
41253;SDS011;26987;59.928;30.306;2023-03-14T05:00:47;5.03;;;1.70;;
41253;SDS011;26987;59.928;30.306;2023-03-14T05:03:37;5.35;;;2.10;;
41253;SDS011;26987;59.928;30.306;2023-03-14T05:06:40;3.55;;;1.48;;
41253;SDS011;26987;59.928;30.306;2023-03-14T05:09:25;6.85;;;2.30;;
41253;SDS011;26987;59.928;30.306;2023-03-14T05:12:11;6.63;;;3.08;;
41253;SDS011;26987;59.928;30.306;2023-03-14T05:14:53;7.57;;;2.60;;
41253;SDS011;26987;59.928;30.306;2023-03-14T05:17:41;8.40;;;2.83;;
41253;SDS011;26987;59.928;30.306;2023-03-14T05:20:29;8.73;;;2.10;;
41253;SDS011;26987;59.928;30.306;2023-03-14T05:23:20;5.07;;;2.47;;
41253;SDS011;26987;59.928;30.306;2023-03-14T05:26:09;6.25;;;2.20;;
41253;SDS011;26987;59.928;30.306;2023-03-14T05:28:55;7.03;;;2.60;;
41253;SDS011;26987;59.928;30.306;2023-03-14T05:31:52;11.48;;;4.32;;
41253;SDS011;26987;59.928;30.306;2023-03-14T05:34:39;15.35;;;3.47;;
41253;SDS011;26987;59.928;30.306;2023-03-14T05:37:26;15.73;;;3.45;;
41253;SDS011;26987;59.928;30.306;2023-03-14T05:40:26;7.97;;;2.55;;
41253;SDS011;26987;59.928;30.306;2023-03-14T05:43:06;7.57;;;2.10;;
41253;SDS011;26987;59.928;30.306;2023-03-14T05:45:54;5.65;;;2.05;;
41253;SDS011;26987;59.928;30.306;2023-03-14T05:48:41;8.40;;;2.92;;
41253;SDS011;26987;59.928;30.306;2023-03-14T05:51:27;12.43;;;2.63;;
41253;SDS011;26987;59.928;30.306;2023-03-14T05:54:17;7.03;;;2.55;;
41253;SDS011;26987;59.928;30.306;2023-03-14T05:56:57;5.85;;;1.75;;
41253;SDS011;26987;59.928;30.306;2023-03-14T05:59:36;9.20;;;1.98;;
41253;SDS011;26987;59.928;30.306;2023-03-14T06:04:55;3.75;;;1.70;;
41253;SDS011;26987;59.928;30.306;2023-03-14T06:07:23;6.80;;;1.67;;
41253;SDS011;26987;59.928;30.306;2023-03-14T06:09:52;8.43;;;1.92;;
41253;SDS011;26987;59.928;30.306;2023-03-14T06:12:20;8.52;;;2.00;;
41253;SDS011;26987;59.928;30.306;2023-03-14T06:14:48;9.90;;;3.20;;
41253;SDS011;26987;59.928;30.306;2023-03-14T06:17:16;11.82;;;3.05;;
41253;SDS011;26987;59.928;30.306;2023-03-14T06:20:01;9.68;;;4.38;;
41253;SDS011;26987;59.928;30.306;2023-03-14T06:22:30;11.57;;;3.97;;
41253;SDS011;26987;59.928;30.306;2023-03-14T06:25:00;13.57;;;4.60;;
41253;SDS011;26987;59.928;30.306;2023-03-14T06:27:28;5.70;;;2.80;;
41253;SDS011;26987;59.928;30.306;2023-03-14T06:29:57;8.75;;;3.80;;
41253;SDS011;26987;59.928;30.306;2023-03-14T06:32:26;9.18;;;3.78;;
41253;SDS011;26987;59.928;30.306;2023-03-14T06:34:58;9.20;;;2.97;;
41253;SDS011;26987;59.928;30.306;2023-03-14T06:37:28;12.13;;;3.83;;
41253;SDS011;26987;59.928;30.306;2023-03-14T06:39:56;7.85;;;3.42;;
41253;SDS011;26987;59.928;30.306;2023-03-14T06:42:47;7.75;;;2.88;;
41253;SDS011;26987;59.928;30.306;2023-03-14T06:45:16;6.95;;;3.15;;
41253;SDS011;26987;59.928;30.306;2023-03-14T06:47:44;8.60;;;3.67;;
41253;SDS011;26987;59.928;30.306;2023-03-14T06:50:13;13.55;;;4.50;;
41253;SDS011;26987;59.928;30.306;2023-03-14T06:52:42;11.30;;;5.18;;
41253;SDS011;26987;59.928;30.306;2023-03-14T06:55:15;16.92;;;5.43;;
41253;SDS011;26987;59.928;30.306;2023-03-14T06:57:44;17.67;;;7.70;;
41253;SDS011;26987;59.928;30.306;2023-03-14T07:00:14;8.98;;;3.70;;
41253;SDS011;26987;59.928;30.306;2023-03-14T07:02:43;8.98;;;4.07;;
41253;SDS011;26987;59.928;30.306;2023-03-14T07:05:31;12.30;;;3.30;;
41253;SDS011;26987;59.928;30.306;2023-03-14T07:07:59;9.25;;;3.78;;
41253;SDS011;26987;59.928;30.306;2023-03-14T07:10:26;7.63;;;3.00;;
41253;SDS011;26987;59.928;30.306;2023-03-14T07:12:54;9.45;;;3.25;;
41253;SDS011;26987;59.928;30.306;2023-03-14T07:15:27;7.38;;;2.65;;
41253;SDS011;26987;59.928;30.306;2023-03-14T07:17:59;8.15;;;2.75;;
41253;SDS011;26987;59.928;30.306;2023-03-14T07:20:28;8.25;;;2.70;;
41253;SDS011;26987;59.928;30.306;2023-03-14T07:22:58;5.20;;;3.03;;
41253;SDS011;26987;59.928;30.306;2023-03-14T07:25:46;16.67;;;3.22;;
41253;SDS011;26987;59.928;30.306;2023-03-14T07:28:16;20.77;;;4.10;;
41253;SDS011;26987;59.928;30.306;2023-03-14T07:30:47;8.63;;;2.88;;
41253;SDS011;26987;59.928;30.306;2023-03-14T07:33:20;9.88;;;2.88;;
41253;SDS011;26987;59.928;30.306;2023-03-14T07:35:48;9.65;;;2.75;;
41253;SDS011;26987;59.928;30.306;2023-03-14T07:38:16;9.75;;;3.47;;
41253;SDS011;26987;59.928;30.306;2023-03-14T07:41:04;10.85;;;3.97;;
41253;SDS011;26987;59.928;30.306;2023-03-14T07:43:36;7.72;;;3.65;;
41253;SDS011;26987;59.928;30.306;2023-03-14T07:46:06;15.00;;;3.60;;
41253;SDS011;26987;59.928;30.306;2023-03-14T07:48:34;10.05;;;3.55;;
41253;SDS011;26987;59.928;30.306;2023-03-14T07:51:02;8.45;;;3.70;;
41253;SDS011;26987;59.928;30.306;2023-03-14T07:53:30;6.65;;;3.63;;
41253;SDS011;26987;59.928;30.306;2023-03-14T07:55:58;10.45;;;3.78;;
41253;SDS011;26987;59.928;30.306;2023-03-14T07:58:26;13.35;;;4.05;;
41253;SDS011;26987;59.928;30.306;2023-03-14T08:00:53;10.23;;;3.50;;
41253;SDS011;26987;59.928;30.306;2023-03-14T08:03:23;10.10;;;4.05;;
41253;SDS011;26987;59.928;30.306;2023-03-14T08:05:50;11.68;;;4.53;;
41253;SDS011;26987;59.928;30.306;2023-03-14T08:08:19;10.27;;;4.00;;
41253;SDS011;26987;59.928;30.306;2023-03-14T08:10:47;13.35;;;4.50;;
41253;SDS011;26987;59.928;30.306;2023-03-14T08:13:14;9.30;;;3.92;;
41253;SDS011;26987;59.928;30.306;2023-03-14T08:15:42;13.35;;;4.38;;
41253;SDS011;26987;59.928;30.306;2023-03-14T08:18:14;7.85;;;3.90;;
41253;SDS011;26987;59.928;30.306;2023-03-14T08:20:43;8.27;;;4.70;;
41253;SDS011;26987;59.928;30.306;2023-03-14T08:23:11;8.18;;;4.20;;
41253;SDS011;26987;59.928;30.306;2023-03-14T08:25:39;11.57;;;4.15;;
41253;SDS011;26987;59.928;30.306;2023-03-14T08:28:07;10.85;;;4.35;;
41253;SDS011;26987;59.928;30.306;2023-03-14T08:30:34;12.52;;;4.32;;
41253;SDS011;26987;59.928;30.306;2023-03-14T08:33:02;16.52;;;5.03;;
41253;SDS011;26987;59.928;30.306;2023-03-14T08:35:30;11.15;;;3.60;;
41253;SDS011;26987;59.928;30.306;2023-03-14T08:37:59;22.48;;;4.88;;
41253;SDS011;26987;59.928;30.306;2023-03-14T08:40:28;13.68;;;4.57;;
41253;SDS011;26987;59.928;30.306;2023-03-14T08:42:56;28.65;;;7.60;;
41253;SDS011;26987;59.928;30.306;2023-03-14T08:45:23;14.05;;;4.63;;
41253;SDS011;26987;59.928;30.306;2023-03-14T08:47:51;10.93;;;4.18;;
41253;SDS011;26987;59.928;30.306;2023-03-14T08:50:19;9.25;;;4.82;;
41253;SDS011;26987;59.928;30.306;2023-03-14T08:52:49;13.70;;;4.60;;
41253;SDS011;26987;59.928;30.306;2023-03-14T08:55:18;21.50;;;4.00;;
41253;SDS011;26987;59.928;30.306;2023-03-14T08:57:46;10.30;;;4.15;;
41253;SDS011;26987;59.928;30.306;2023-03-14T09:00:14;9.60;;;3.65;;
41253;SDS011;26987;59.928;30.306;2023-03-14T09:02:43;10.73;;;4.25;;
41253;SDS011;26987;59.928;30.306;2023-03-14T09:05:12;10.02;;;4.00;;
41253;SDS011;26987;59.928;30.306;2023-03-14T09:07:41;11.25;;;5.18;;
41253;SDS011;26987;59.928;30.306;2023-03-14T09:10:09;10.05;;;4.43;;
41253;SDS011;26987;59.928;30.306;2023-03-14T09:12:39;9.80;;;4.05;;
41253;SDS011;26987;59.928;30.306;2023-03-14T09:15:07;8.73;;;4.72;;
41253;SDS011;26987;59.928;30.306;2023-03-14T09:17:36;8.20;;;4.28;;
41253;SDS011;26987;59.928;30.306;2023-03-14T09:20:04;11.50;;;4.63;;
41253;SDS011;26987;59.928;30.306;2023-03-14T09:22:34;10.70;;;4.20;;
41253;SDS011;26987;59.928;30.306;2023-03-14T09:25:02;10.18;;;4.15;;
41253;SDS011;26987;59.928;30.306;2023-03-14T09:27:30;14.77;;;4.35;;
41253;SDS011;26987;59.928;30.306;2023-03-14T09:30:00;13.18;;;4.72;;
41253;SDS011;26987;59.928;30.306;2023-03-14T09:32:28;7.53;;;3.97;;
41253;SDS011;26987;59.928;30.306;2023-03-14T09:34:57;11.35;;;4.40;;
41253;SDS011;26987;59.928;30.306;2023-03-14T09:37:25;9.75;;;4.68;;
41253;SDS011;26987;59.928;30.306;2023-03-14T09:39:53;16.10;;;5.32;;
41253;SDS011;26987;59.928;30.306;2023-03-14T09:42:21;15.68;;;5.05;;
41253;SDS011;26987;59.928;30.306;2023-03-14T09:44:53;10.07;;;4.78;;
41253;SDS011;26987;59.928;30.306;2023-03-14T09:47:24;13.10;;;4.75;;
41253;SDS011;26987;59.928;30.306;2023-03-14T09:49:53;14.52;;;4.97;;
41253;SDS011;26987;59.928;30.306;2023-03-14T09:52:22;15.52;;;5.80;;
41253;SDS011;26987;59.928;30.306;2023-03-14T09:54:54;11.43;;;5.38;;
41253;SDS011;26987;59.928;30.306;2023-03-14T09:57:28;11.98;;;4.45;;
41253;SDS011;26987;59.928;30.306;2023-03-14T09:59:58;12.68;;;5.47;;
41253;SDS011;26987;59.928;30.306;2023-03-14T10:02:40;9.57;;;4.00;;
41253;SDS011;26987;59.928;30.306;2023-03-14T10:05:13;13.50;;;4.40;;
41253;SDS011;26987;59.928;30.306;2023-03-14T10:07:43;9.27;;;4.30;;
41253;SDS011;26987;59.928;30.306;2023-03-14T10:10:12;13.18;;;5.03;;
41253;SDS011;26987;59.928;30.306;2023-03-14T10:12:44;12.23;;;5.13;;
41253;SDS011;26987;59.928;30.306;2023-03-14T10:15:14;10.15;;;3.53;;
41253;SDS011;26987;59.928;30.306;2023-03-14T10:17:51;11.40;;;4.10;;
41253;SDS011;26987;59.928;30.306;2023-03-14T10:20:26;11.05;;;4.53;;
41253;SDS011;26987;59.928;30.306;2023-03-14T10:22:59;10.10;;;3.75;;
41253;SDS011;26987;59.928;30.306;2023-03-14T10:25:29;12.05;;;5.72;;
41253;SDS011;26987;59.928;30.306;2023-03-14T10:27:58;13.35;;;4.40;;
41253;SDS011;26987;59.928;30.306;2023-03-14T10:30:29;13.52;;;4.68;;
41253;SDS011;26987;59.928;30.306;2023-03-14T10:33:08;10.13;;;4.38;;
41253;SDS011;26987;59.928;30.306;2023-03-14T10:35:38;15.00;;;4.77;;
41253;SDS011;26987;59.928;30.306;2023-03-14T10:38:11;16.08;;;5.30;;
41253;SDS011;26987;59.928;30.306;2023-03-14T10:40:40;16.10;;;4.63;;
41253;SDS011;26987;59.928;30.306;2023-03-14T10:43:15;12.15;;;5.10;;
41253;SDS011;26987;59.928;30.306;2023-03-14T10:45:51;14.88;;;4.75;;
41253;SDS011;26987;59.928;30.306;2023-03-14T10:48:29;17.67;;;5.20;;
41253;SDS011;26987;59.928;30.306;2023-03-14T10:51:03;10.73;;;4.97;;
41253;SDS011;26987;59.928;30.306;2023-03-14T10:53:34;10.85;;;4.50;;
41253;SDS011;26987;59.928;30.306;2023-03-14T10:56:07;9.43;;;4.20;;
41253;SDS011;26987;59.928;30.306;2023-03-14T10:58:39;9.20;;;3.60;;
41253;SDS011;26987;59.928;30.306;2023-03-14T11:01:21;13.80;;;4.07;;
41253;SDS011;26987;59.928;30.306;2023-03-14T11:03:59;8.93;;;4.20;;
41253;SDS011;26987;59.928;30.306;2023-03-14T11:06:34;12.48;;;4.00;;
41253;SDS011;26987;59.928;30.306;2023-03-14T11:09:10;10.48;;;3.67;;
41253;SDS011;26987;59.928;30.306;2023-03-14T11:11:45;10.65;;;3.90;;
41253;SDS011;26987;59.928;30.306;2023-03-14T11:14:17;9.60;;;3.95;;
41253;SDS011;26987;59.928;30.306;2023-03-14T11:16:53;10.02;;;3.63;;
41253;SDS011;26987;59.928;30.306;2023-03-14T11:19:40;11.23;;;4.35;;
41253;SDS011;26987;59.928;30.306;2023-03-14T11:22:20;8.68;;;4.43;;
41253;SDS011;26987;59.928;30.306;2023-03-14T11:24:55;10.52;;;4.10;;
41253;SDS011;26987;59.928;30.306;2023-03-14T11:27:42;9.95;;;4.25;;
41253;SDS011;26987;59.928;30.306;2023-03-14T11:30:19;9.60;;;3.85;;
41253;SDS011;26987;59.928;30.306;2023-03-14T11:32:53;19.50;;;4.90;;
41253;SDS011;26987;59.928;30.306;2023-03-14T11:35:32;13.73;;;4.78;;
41253;SDS011;26987;59.928;30.306;2023-03-14T11:38:05;19.02;;;4.75;;
41253;SDS011;26987;59.928;30.306;2023-03-14T11:40:40;16.55;;;4.70;;
41253;SDS011;26987;59.928;30.306;2023-03-14T11:43:11;17.50;;;4.55;;
41253;SDS011;26987;59.928;30.306;2023-03-14T11:45:43;18.42;;;5.20;;
41253;SDS011;26987;59.928;30.306;2023-03-14T11:48:17;25.30;;;6.15;;
41253;SDS011;26987;59.928;30.306;2023-03-14T11:50:54;18.08;;;5.72;;
41253;SDS011;26987;59.928;30.306;2023-03-14T11:53:29;15.32;;;5.28;;
41253;SDS011;26987;59.928;30.306;2023-03-14T11:56:08;23.90;;;6.00;;
41253;SDS011;26987;59.928;30.306;2023-03-14T11:58:42;21.30;;;6.65;;
41253;SDS011;26987;59.928;30.306;2023-03-14T12:01:16;16.10;;;5.68;;
41253;SDS011;26987;59.928;30.306;2023-03-14T12:03:51;13.07;;;5.00;;
41253;SDS011;26987;59.928;30.306;2023-03-14T12:06:24;17.27;;;5.60;;
41253;SDS011;26987;59.928;30.306;2023-03-14T12:08:59;14.45;;;5.47;;
41253;SDS011;26987;59.928;30.306;2023-03-14T12:11:33;14.82;;;5.65;;
41253;SDS011;26987;59.928;30.306;2023-03-14T12:14:17;18.88;;;6.93;;
41253;SDS011;26987;59.928;30.306;2023-03-14T12:16:47;21.20;;;6.68;;
41253;SDS011;26987;59.928;30.306;2023-03-14T12:24:55;17.67;;;5.40;;
41253;SDS011;26987;59.928;30.306;2023-03-14T12:27:41;14.27;;;4.85;;
41253;SDS011;26987;59.928;30.306;2023-03-14T12:36:01;11.52;;;4.95;;
41253;SDS011;26987;59.928;30.306;2023-03-14T12:38:54;16.25;;;4.72;;
41253;SDS011;26987;59.928;30.306;2023-03-14T12:41:29;16.13;;;5.25;;
41253;SDS011;26987;59.928;30.306;2023-03-14T12:50:14;20.00;;;4.88;;
41253;SDS011;26987;59.928;30.306;2023-03-14T12:52:51;13.02;;;5.50;;
41253;SDS011;26987;59.928;30.306;2023-03-14T12:55:35;12.77;;;5.25;;
41253;SDS011;26987;59.928;30.306;2023-03-14T12:58:10;15.00;;;5.43;;
41253;SDS011;26987;59.928;30.306;2023-03-14T13:00:44;14.75;;;5.40;;
41253;SDS011;26987;59.928;30.306;2023-03-14T13:03:13;14.18;;;5.78;;
41253;SDS011;26987;59.928;30.306;2023-03-14T13:05:51;18.40;;;5.90;;
41253;SDS011;26987;59.928;30.306;2023-03-14T13:08:37;20.02;;;5.10;;
41253;SDS011;26987;59.928;30.306;2023-03-14T13:11:09;14.82;;;5.32;;
41253;SDS011;26987;59.928;30.306;2023-03-14T13:13:41;14.23;;;5.95;;
41253;SDS011;26987;59.928;30.306;2023-03-14T13:16:14;15.75;;;4.95;;
41253;SDS011;26987;59.928;30.306;2023-03-14T13:18:44;18.33;;;5.90;;
41253;SDS011;26987;59.928;30.306;2023-03-14T13:21:14;17.05;;;5.70;;
41253;SDS011;26987;59.928;30.306;2023-03-14T13:23:55;17.83;;;6.18;;
41253;SDS011;26987;59.928;30.306;2023-03-14T13:26:31;21.52;;;6.40;;
41253;SDS011;26987;59.928;30.306;2023-03-14T13:29:08;11.02;;;5.53;;
41253;SDS011;26987;59.928;30.306;2023-03-14T13:31:36;15.38;;;5.47;;
41253;SDS011;26987;59.928;30.306;2023-03-14T13:34:10;19.02;;;6.28;;
41253;SDS011;26987;59.928;30.306;2023-03-14T13:36:38;19.95;;;6.47;;
41253;SDS011;26987;59.928;30.306;2023-03-14T13:39:09;19.20;;;5.70;;
41253;SDS011;26987;59.928;30.306;2023-03-14T13:41:41;20.83;;;7.38;;
41253;SDS011;26987;59.928;30.306;2023-03-14T13:44:12;16.65;;;7.32;;
41253;SDS011;26987;59.928;30.306;2023-03-14T13:46:43;15.45;;;6.93;;
41253;SDS011;26987;59.928;30.306;2023-03-14T13:49:11;13.18;;;6.38;;
41253;SDS011;26987;59.928;30.306;2023-03-14T13:51:45;19.15;;;7.60;;
41253;SDS011;26987;59.928;30.306;2023-03-14T13:54:13;19.35;;;8.27;;
41253;SDS011;26987;59.928;30.306;2023-03-14T13:56:45;19.83;;;7.57;;
41253;SDS011;26987;59.928;30.306;2023-03-14T13:59:23;17.23;;;6.25;;
41253;SDS011;26987;59.928;30.306;2023-03-14T14:01:51;17.27;;;7.07;;
41253;SDS011;26987;59.928;30.306;2023-03-14T14:04:21;20.38;;;7.10;;
41253;SDS011;26987;59.928;30.306;2023-03-14T14:06:53;17.85;;;6.68;;
41253;SDS011;26987;59.928;30.306;2023-03-14T14:09:24;20.05;;;7.93;;
41253;SDS011;26987;59.928;30.306;2023-03-14T14:11:55;19.63;;;6.18;;
41253;SDS011;26987;59.928;30.306;2023-03-14T14:14:28;20.42;;;6.80;;
41253;SDS011;26987;59.928;30.306;2023-03-14T14:16:59;12.45;;;5.88;;
41253;SDS011;26987;59.928;30.306;2023-03-14T14:19:28;17.15;;;6.25;;
41253;SDS011;26987;59.928;30.306;2023-03-14T14:21:59;14.65;;;6.60;;
41253;SDS011;26987;59.928;30.306;2023-03-14T14:24:29;17.42;;;7.80;;
41253;SDS011;26987;59.928;30.306;2023-03-14T14:27:00;17.73;;;7.28;;
41253;SDS011;26987;59.928;30.306;2023-03-14T14:29:35;20.05;;;7.32;;
41253;SDS011;26987;59.928;30.306;2023-03-14T14:32:08;16.10;;;7.47;;
41253;SDS011;26987;59.928;30.306;2023-03-14T14:34:39;17.38;;;6.70;;
41253;SDS011;26987;59.928;30.306;2023-03-14T14:37:19;13.00;;;6.80;;
41253;SDS011;26987;59.928;30.306;2023-03-14T14:39:48;16.73;;;6.55;;
41253;SDS011;26987;59.928;30.306;2023-03-14T14:42:20;22.83;;;7.40;;
41253;SDS011;26987;59.928;30.306;2023-03-14T14:44:51;24.10;;;7.20;;
41253;SDS011;26987;59.928;30.306;2023-03-14T14:47:20;17.92;;;8.30;;
41253;SDS011;26987;59.928;30.306;2023-03-14T14:49:51;27.77;;;8.15;;
41253;SDS011;26987;59.928;30.306;2023-03-14T14:52:21;17.90;;;7.07;;
41253;SDS011;26987;59.928;30.306;2023-03-14T14:54:59;25.52;;;7.95;;
41253;SDS011;26987;59.928;30.306;2023-03-14T14:57:30;22.77;;;7.45;;
41253;SDS011;26987;59.928;30.306;2023-03-14T15:00:04;20.60;;;8.30;;
41253;SDS011;26987;59.928;30.306;2023-03-14T15:02:37;21.23;;;8.50;;
41253;SDS011;26987;59.928;30.306;2023-03-14T15:05:11;21.10;;;7.30;;
41253;SDS011;26987;59.928;30.306;2023-03-14T15:07:40;20.77;;;9.23;;
41253;SDS011;26987;59.928;30.306;2023-03-14T15:10:09;21.33;;;9.88;;
41253;SDS011;26987;59.928;30.306;2023-03-14T15:12:40;24.17;;;9.68;;
41253;SDS011;26987;59.928;30.306;2023-03-14T15:15:08;20.42;;;9.90;;
41253;SDS011;26987;59.928;30.306;2023-03-14T15:17:39;20.80;;;9.73;;
41253;SDS011;26987;59.928;30.306;2023-03-14T15:20:10;23.42;;;9.93;;
41253;SDS011;26987;59.928;30.306;2023-03-14T15:22:39;22.42;;;10.32;;